sensor_id;sensor_type;location;lat;lon;timestamp;P1;durP1;ratioP1;P2;durP2;ratioP2
1537;SDS011;12022;52.266;10.522;2022-11-20T00:01:10;6.67;;;6.57;;
1537;SDS011;12022;52.266;10.522;2022-11-20T00:03:42;6.10;;;6.00;;
1537;SDS011;12022;52.266;10.522;2022-11-20T00:06:10;7.00;;;6.90;;
1537;SDS011;12022;52.266;10.522;2022-11-20T00:08:39;7.03;;;6.93;;
1537;SDS011;12022;52.266;10.522;2022-11-20T00:11:07;8.33;;;8.23;;
1537;SDS011;12022;52.266;10.522;2022-11-20T00:13:42;7.10;;;7.00;;
1537;SDS011;12022;52.266;10.522;2022-11-20T00:16:11;6.27;;;6.17;;
1537;SDS011;12022;52.266;10.522;2022-11-20T00:18:38;7.77;;;7.67;;
1537;SDS011;12022;52.266;10.522;2022-11-20T00:21:06;9.20;;;9.10;;
1537;SDS011;12022;52.266;10.522;2022-11-20T00:23:37;9.57;;;9.47;;
1537;SDS011;12022;52.266;10.522;2022-11-20T00:26:08;9.47;;;9.37;;
1537;SDS011;12022;52.266;10.522;2022-11-20T00:28:37;7.40;;;7.30;;
1537;SDS011;12022;52.266;10.522;2022-11-20T00:31:14;6.37;;;6.27;;
1537;SDS011;12022;52.266;10.522;2022-11-20T00:33:42;8.93;;;8.83;;
1537;SDS011;12022;52.266;10.522;2022-11-20T00:36:13;7.00;;;6.90;;
1537;SDS011;12022;52.266;10.522;2022-11-20T00:38:41;6.77;;;6.67;;
1537;SDS011;12022;52.266;10.522;2022-11-20T00:41:10;6.13;;;6.03;;
1537;SDS011;12022;52.266;10.522;2022-11-20T00:43:38;5.90;;;5.80;;
1537;SDS011;12022;52.266;10.522;2022-11-20T00:46:06;6.73;;;6.63;;
1537;SDS011;12022;52.266;10.522;2022-11-20T00:48:35;7.17;;;7.07;;
1537;SDS011;12022;52.266;10.522;2022-11-20T00:51:02;6.27;;;6.17;;
1537;SDS011;12022;52.266;10.522;2022-11-20T00:53:29;6.53;;;6.43;;
1537;SDS011;12022;52.266;10.522;2022-11-20T00:56:01;4.83;;;4.83;;
1537;SDS011;12022;52.266;10.522;2022-11-20T00:58:30;7.60;;;7.50;;
1537;SDS011;12022;52.266;10.522;2022-11-20T01:03:32;5.33;;;5.33;;
1537;SDS011;12022;52.266;10.522;2022-11-20T01:06:04;7.63;;;7.53;;
1537;SDS011;12022;52.266;10.522;2022-11-20T01:08:34;4.93;;;4.93;;
1537;SDS011;12022;52.266;10.522;2022-11-20T01:11:02;4.50;;;4.50;;
1537;SDS011;12022;52.266;10.522;2022-11-20T01:13:39;5.40;;;5.30;;
1537;SDS011;12022;52.266;10.522;2022-11-20T01:16:12;5.43;;;5.37;;
1537;SDS011;12022;52.266;10.522;2022-11-20T01:18:41;5.10;;;5.10;;
1537;SDS011;12022;52.266;10.522;2022-11-20T01:21:11;5.80;;;5.70;;
1537;SDS011;12022;52.266;10.522;2022-11-20T01:23:40;6.93;;;6.83;;
1537;SDS011;12022;52.266;10.522;2022-11-20T01:26:09;5.50;;;5.40;;
1537;SDS011;12022;52.266;10.522;2022-11-20T01:28:38;6.47;;;6.37;;
1537;SDS011;12022;52.266;10.522;2022-11-20T01:31:13;6.33;;;6.23;;
1537;SDS011;12022;52.266;10.522;2022-11-20T01:33:45;7.90;;;7.80;;
1537;SDS011;12022;52.266;10.522;2022-11-20T01:36:13;7.90;;;7.80;;
1537;SDS011;12022;52.266;10.522;2022-11-20T01:38:41;8.37;;;8.27;;
1537;SDS011;12022;52.266;10.522;2022-11-20T01:41:09;7.50;;;7.40;;
1537;SDS011;12022;52.266;10.522;2022-11-20T01:43:58;8.63;;;8.53;;
1537;SDS011;12022;52.266;10.522;2022-11-20T01:46:26;7.30;;;7.20;;
1537;SDS011;12022;52.266;10.522;2022-11-20T01:51:48;6.60;;;6.50;;
1537;SDS011;12022;52.266;10.522;2022-11-20T01:54:19;6.77;;;6.67;;
1537;SDS011;12022;52.266;10.522;2022-11-20T01:57:02;6.93;;;6.83;;
1537;SDS011;12022;52.266;10.522;2022-11-20T01:59:32;5.57;;;5.47;;
1537;SDS011;12022;52.266;10.522;2022-11-20T02:02:00;6.80;;;6.70;;
1537;SDS011;12022;52.266;10.522;2022-11-20T02:04:27;6.80;;;6.70;;
1537;SDS011;12022;52.266;10.522;2022-11-20T02:07:00;7.33;;;7.23;;
1537;SDS011;12022;52.266;10.522;2022-11-20T02:09:28;6.13;;;6.03;;
1537;SDS011;12022;52.266;10.522;2022-11-20T02:11:55;6.67;;;6.57;;
1537;SDS011;12022;52.266;10.522;2022-11-20T02:14:23;8.53;;;8.43;;
1537;SDS011;12022;52.266;10.522;2022-11-20T02:16:51;7.87;;;7.77;;
1537;SDS011;12022;52.266;10.522;2022-11-20T02:19:24;6.67;;;6.57;;
1537;SDS011;12022;52.266;10.522;2022-11-20T02:22:07;7.07;;;6.97;;
1537;SDS011;12022;52.266;10.522;2022-11-20T02:24:49;7.97;;;7.87;;
1537;SDS011;12022;52.266;10.522;2022-11-20T02:27:17;8.80;;;8.70;;
1537;SDS011;12022;52.266;10.522;2022-11-20T02:29:49;7.80;;;7.70;;
1537;SDS011;12022;52.266;10.522;2022-11-20T02:32:31;7.77;;;7.67;;
1537;SDS011;12022;52.266;10.522;2022-11-20T02:35:09;6.53;;;6.43;;
1537;SDS011;12022;52.266;10.522;2022-11-20T02:37:56;7.63;;;7.53;;
1537;SDS011;12022;52.266;10.522;2022-11-20T02:40:25;5.80;;;5.70;;
1537;SDS011;12022;52.266;10.522;2022-11-20T02:42:52;6.47;;;6.37;;
1537;SDS011;12022;52.266;10.522;2022-11-20T02:45:20;6.77;;;6.67;;
1537;SDS011;12022;52.266;10.522;2022-11-20T02:47:47;6.27;;;6.17;;
1537;SDS011;12022;52.266;10.522;2022-11-20T02:50:14;6.70;;;6.60;;
1537;SDS011;12022;52.266;10.522;2022-11-20T02:52:41;6.30;;;6.20;;
1537;SDS011;12022;52.266;10.522;2022-11-20T02:55:08;5.53;;;5.43;;
1537;SDS011;12022;52.266;10.522;2022-11-20T02:57:35;7.20;;;7.10;;
1537;SDS011;12022;52.266;10.522;2022-11-20T03:00:02;9.13;;;9.03;;
1537;SDS011;12022;52.266;10.522;2022-11-20T03:02:31;7.97;;;7.87;;
1537;SDS011;12022;52.266;10.522;2022-11-20T03:04:58;8.40;;;8.30;;
1537;SDS011;12022;52.266;10.522;2022-11-20T03:07:25;6.53;;;6.43;;
1537;SDS011;12022;52.266;10.522;2022-11-20T03:09:52;5.80;;;5.70;;
1537;SDS011;12022;52.266;10.522;2022-11-20T03:12:18;5.30;;;5.23;;
1537;SDS011;12022;52.266;10.522;2022-11-20T03:14:45;5.97;;;5.87;;
1537;SDS011;12022;52.266;10.522;2022-11-20T03:17:18;6.30;;;6.20;;
1537;SDS011;12022;52.266;10.522;2022-11-20T03:19:45;7.67;;;7.57;;
1537;SDS011;12022;52.266;10.522;2022-11-20T03:22:12;6.80;;;6.70;;
1537;SDS011;12022;52.266;10.522;2022-11-20T03:24:39;8.83;;;8.73;;
1537;SDS011;12022;52.266;10.522;2022-11-20T03:27:05;7.47;;;7.37;;
1537;SDS011;12022;52.266;10.522;2022-11-20T03:29:32;9.03;;;8.93;;
1537;SDS011;12022;52.266;10.522;2022-11-20T03:32:01;8.00;;;7.90;;
1537;SDS011;12022;52.266;10.522;2022-11-20T03:34:27;7.90;;;7.80;;
1537;SDS011;12022;52.266;10.522;2022-11-20T03:36:54;6.40;;;6.30;;
1537;SDS011;12022;52.266;10.522;2022-11-20T03:39:21;6.60;;;6.50;;
1537;SDS011;12022;52.266;10.522;2022-11-20T03:41:48;6.53;;;6.43;;
1537;SDS011;12022;52.266;10.522;2022-11-20T03:44:15;6.67;;;6.57;;
1537;SDS011;12022;52.266;10.522;2022-11-20T03:46:42;5.77;;;5.67;;
1537;SDS011;12022;52.266;10.522;2022-11-20T03:49:09;6.40;;;6.30;;
1537;SDS011;12022;52.266;10.522;2022-11-20T03:51:36;6.63;;;6.53;;
1537;SDS011;12022;52.266;10.522;2022-11-20T03:54:04;6.00;;;5.90;;
1537;SDS011;12022;52.266;10.522;2022-11-20T03:56:35;4.70;;;4.70;;
1537;SDS011;12022;52.266;10.522;2022-11-20T03:59:04;5.17;;;5.13;;
1537;SDS011;12022;52.266;10.522;2022-11-20T04:01:32;4.53;;;4.53;;
1537;SDS011;12022;52.266;10.522;2022-11-20T04:04:00;5.77;;;5.67;;
1537;SDS011;12022;52.266;10.522;2022-11-20T04:06:35;4.37;;;4.37;;
1537;SDS011;12022;52.266;10.522;2022-11-20T04:09:03;6.97;;;6.87;;
1537;SDS011;12022;52.266;10.522;2022-11-20T04:11:32;6.90;;;6.80;;
1537;SDS011;12022;52.266;10.522;2022-11-20T04:14:02;6.60;;;6.50;;
1537;SDS011;12022;52.266;10.522;2022-11-20T04:16:31;5.17;;;5.17;;
1537;SDS011;12022;52.266;10.522;2022-11-20T04:19:01;6.03;;;5.93;;
1537;SDS011;12022;52.266;10.522;2022-11-20T04:21:29;5.87;;;5.77;;
1537;SDS011;12022;52.266;10.522;2022-11-20T04:23:56;6.70;;;6.60;;
1537;SDS011;12022;52.266;10.522;2022-11-20T04:26:24;7.50;;;7.40;;
1537;SDS011;12022;52.266;10.522;2022-11-20T04:28:53;6.03;;;5.93;;
1537;SDS011;12022;52.266;10.522;2022-11-20T04:31:21;4.00;;;4.00;;
1537;SDS011;12022;52.266;10.522;2022-11-20T04:33:50;6.00;;;5.90;;
1537;SDS011;12022;52.266;10.522;2022-11-20T04:36:19;5.00;;;5.00;;
1537;SDS011;12022;52.266;10.522;2022-11-20T04:38:50;5.57;;;5.47;;
1537;SDS011;12022;52.266;10.522;2022-11-20T04:41:23;6.77;;;6.67;;
1537;SDS011;12022;52.266;10.522;2022-11-20T04:43:55;5.43;;;5.40;;
1537;SDS011;12022;52.266;10.522;2022-11-20T04:46:30;4.83;;;4.83;;
1537;SDS011;12022;52.266;10.522;2022-11-20T04:48:58;3.83;;;3.83;;
1537;SDS011;12022;52.266;10.522;2022-11-20T04:51:25;9.20;;;9.10;;
1537;SDS011;12022;52.266;10.522;2022-11-20T04:53:53;6.17;;;6.07;;
1537;SDS011;12022;52.266;10.522;2022-11-20T04:56:19;5.07;;;5.07;;
1537;SDS011;12022;52.266;10.522;2022-11-20T04:58:46;3.40;;;3.40;;
1537;SDS011;12022;52.266;10.522;2022-11-20T05:01:14;6.20;;;6.10;;
1537;SDS011;12022;52.266;10.522;2022-11-20T05:03:44;5.47;;;5.37;;
1537;SDS011;12022;52.266;10.522;2022-11-20T05:06:12;6.03;;;5.93;;
1537;SDS011;12022;52.266;10.522;2022-11-20T05:08:40;6.37;;;6.27;;
1537;SDS011;12022;52.266;10.522;2022-11-20T05:11:08;4.80;;;4.80;;
1537;SDS011;12022;52.266;10.522;2022-11-20T05:13:37;5.57;;;5.47;;
1537;SDS011;12022;52.266;10.522;2022-11-20T05:16:08;4.10;;;4.10;;
1537;SDS011;12022;52.266;10.522;2022-11-20T05:18:40;4.97;;;4.97;;
1537;SDS011;12022;52.266;10.522;2022-11-20T05:21:08;3.77;;;3.77;;
1537;SDS011;12022;52.266;10.522;2022-11-20T05:23:36;5.03;;;5.03;;
1537;SDS011;12022;52.266;10.522;2022-11-20T05:26:03;6.00;;;5.90;;
1537;SDS011;12022;52.266;10.522;2022-11-20T05:28:31;6.50;;;6.40;;
1537;SDS011;12022;52.266;10.522;2022-11-20T05:33:33;5.50;;;5.40;;
1537;SDS011;12022;52.266;10.522;2022-11-20T05:36:02;4.13;;;4.13;;
1537;SDS011;12022;52.266;10.522;2022-11-20T05:38:30;4.57;;;4.57;;
1537;SDS011;12022;52.266;10.522;2022-11-20T05:41:06;5.43;;;5.33;;
1537;SDS011;12022;52.266;10.522;2022-11-20T05:43:34;5.10;;;5.10;;
1537;SDS011;12022;52.266;10.522;2022-11-20T05:46:03;5.20;;;5.20;;
1537;SDS011;12022;52.266;10.522;2022-11-20T05:48:30;5.47;;;5.40;;
1537;SDS011;12022;52.266;10.522;2022-11-20T05:50:58;5.03;;;5.03;;
1537;SDS011;12022;52.266;10.522;2022-11-20T05:53:26;5.90;;;5.80;;
1537;SDS011;12022;52.266;10.522;2022-11-20T05:55:59;5.23;;;5.20;;
1537;SDS011;12022;52.266;10.522;2022-11-20T05:58:34;4.20;;;4.20;;
1537;SDS011;12022;52.266;10.522;2022-11-20T06:01:06;4.40;;;4.40;;
1537;SDS011;12022;52.266;10.522;2022-11-20T06:03:47;6.30;;;6.20;;
1537;SDS011;12022;52.266;10.522;2022-11-20T06:06:15;7.07;;;6.97;;
1537;SDS011;12022;52.266;10.522;2022-11-20T06:08:43;5.93;;;5.83;;
1537;SDS011;12022;52.266;10.522;2022-11-20T06:11:11;5.80;;;5.70;;
1537;SDS011;12022;52.266;10.522;2022-11-20T06:13:39;4.90;;;4.90;;
1537;SDS011;12022;52.266;10.522;2022-11-20T06:16:08;6.37;;;6.27;;
1537;SDS011;12022;52.266;10.522;2022-11-20T06:18:36;4.70;;;4.70;;
1537;SDS011;12022;52.266;10.522;2022-11-20T06:21:04;4.80;;;4.80;;
1537;SDS011;12022;52.266;10.522;2022-11-20T06:23:33;4.80;;;4.80;;
1537;SDS011;12022;52.266;10.522;2022-11-20T06:26:02;4.77;;;4.77;;
1537;SDS011;12022;52.266;10.522;2022-11-20T06:28:34;4.90;;;4.90;;
1537;SDS011;12022;52.266;10.522;2022-11-20T06:31:02;4.50;;;4.50;;
1537;SDS011;12022;52.266;10.522;2022-11-20T06:33:29;4.30;;;4.30;;
1537;SDS011;12022;52.266;10.522;2022-11-20T06:35:57;5.17;;;5.17;;
1537;SDS011;12022;52.266;10.522;2022-11-20T06:38:35;4.23;;;4.23;;
1537;SDS011;12022;52.266;10.522;2022-11-20T06:41:03;4.33;;;4.33;;
1537;SDS011;12022;52.266;10.522;2022-11-20T06:43:33;5.00;;;5.00;;
1537;SDS011;12022;52.266;10.522;2022-11-20T06:46:00;4.57;;;4.57;;
1537;SDS011;12022;52.266;10.522;2022-11-20T06:48:27;3.67;;;3.67;;
1537;SDS011;12022;52.266;10.522;2022-11-20T06:50:55;4.50;;;4.50;;
1537;SDS011;12022;52.266;10.522;2022-11-20T06:53:23;6.07;;;5.97;;
1537;SDS011;12022;52.266;10.522;2022-11-20T06:55:50;5.60;;;5.50;;
1537;SDS011;12022;52.266;10.522;2022-11-20T06:58:18;4.63;;;4.63;;
1537;SDS011;12022;52.266;10.522;2022-11-20T07:00:45;4.73;;;4.73;;
1537;SDS011;12022;52.266;10.522;2022-11-20T07:03:12;5.80;;;5.70;;
1537;SDS011;12022;52.266;10.522;2022-11-20T07:05:39;5.87;;;5.77;;
1537;SDS011;12022;52.266;10.522;2022-11-20T07:08:06;5.90;;;5.80;;
1537;SDS011;12022;52.266;10.522;2022-11-20T07:10:33;6.23;;;6.13;;
1537;SDS011;12022;52.266;10.522;2022-11-20T07:13:01;7.63;;;7.53;;
1537;SDS011;12022;52.266;10.522;2022-11-20T07:15:28;8.27;;;8.17;;
1537;SDS011;12022;52.266;10.522;2022-11-20T07:17:55;8.10;;;8.00;;
1537;SDS011;12022;52.266;10.522;2022-11-20T07:20:25;7.77;;;7.67;;
1537;SDS011;12022;52.266;10.522;2022-11-20T07:22:53;5.70;;;5.63;;
1537;SDS011;12022;52.266;10.522;2022-11-20T07:25:21;6.80;;;6.70;;
1537;SDS011;12022;52.266;10.522;2022-11-20T07:27:49;6.50;;;6.40;;
1537;SDS011;12022;52.266;10.522;2022-11-20T07:30:16;7.20;;;7.10;;
1537;SDS011;12022;52.266;10.522;2022-11-20T07:32:47;6.10;;;6.00;;
1537;SDS011;12022;52.266;10.522;2022-11-20T07:35:16;8.53;;;8.43;;
1537;SDS011;12022;52.266;10.522;2022-11-20T07:37:43;9.93;;;9.83;;
1537;SDS011;12022;52.266;10.522;2022-11-20T07:40:12;7.47;;;7.37;;
1537;SDS011;12022;52.266;10.522;2022-11-20T07:42:47;9.00;;;8.90;;
1537;SDS011;12022;52.266;10.522;2022-11-20T07:45:18;4.57;;;4.57;;
1537;SDS011;12022;52.266;10.522;2022-11-20T07:47:46;5.63;;;5.53;;
1537;SDS011;12022;52.266;10.522;2022-11-20T07:50:13;5.57;;;5.47;;
1537;SDS011;12022;52.266;10.522;2022-11-20T07:52:40;5.00;;;5.00;;
1537;SDS011;12022;52.266;10.522;2022-11-20T07:55:08;6.10;;;6.00;;
1537;SDS011;12022;52.266;10.522;2022-11-20T07:57:36;6.43;;;6.33;;
1537;SDS011;12022;52.266;10.522;2022-11-20T08:00:03;7.20;;;7.10;;
1537;SDS011;12022;52.266;10.522;2022-11-20T08:02:32;7.53;;;7.43;;
1537;SDS011;12022;52.266;10.522;2022-11-20T08:04:58;6.87;;;6.77;;
1537;SDS011;12022;52.266;10.522;2022-11-20T08:07:25;6.63;;;6.53;;
1537;SDS011;12022;52.266;10.522;2022-11-20T08:09:52;6.60;;;6.50;;
1537;SDS011;12022;52.266;10.522;2022-11-20T08:12:20;6.10;;;6.00;;
1537;SDS011;12022;52.266;10.522;2022-11-20T08:15:06;7.07;;;6.97;;
1537;SDS011;12022;52.266;10.522;2022-11-20T08:17:38;5.20;;;5.20;;
1537;SDS011;12022;52.266;10.522;2022-11-20T08:20:05;6.67;;;6.57;;
1537;SDS011;12022;52.266;10.522;2022-11-20T08:22:32;5.80;;;5.70;;
1537;SDS011;12022;52.266;10.522;2022-11-20T08:24:59;5.40;;;5.30;;
1537;SDS011;12022;52.266;10.522;2022-11-20T08:27:26;5.20;;;5.13;;
1537;SDS011;12022;52.266;10.522;2022-11-20T08:29:54;6.57;;;6.47;;
1537;SDS011;12022;52.266;10.522;2022-11-20T08:32:21;6.17;;;6.07;;
1537;SDS011;12022;52.266;10.522;2022-11-20T08:34:48;7.90;;;7.80;;
1537;SDS011;12022;52.266;10.522;2022-11-20T08:37:15;5.27;;;5.20;;
1537;SDS011;12022;52.266;10.522;2022-11-20T08:39:41;4.37;;;4.37;;
1537;SDS011;12022;52.266;10.522;2022-11-20T08:42:08;6.83;;;6.73;;
1537;SDS011;12022;52.266;10.522;2022-11-20T08:44:35;5.27;;;5.17;;
1537;SDS011;12022;52.266;10.522;2022-11-20T08:47:02;8.60;;;8.50;;
1537;SDS011;12022;52.266;10.522;2022-11-20T08:49:29;6.37;;;6.27;;
1537;SDS011;12022;52.266;10.522;2022-11-20T08:51:56;7.20;;;7.10;;
1537;SDS011;12022;52.266;10.522;2022-11-20T08:54:23;7.40;;;7.30;;
1537;SDS011;12022;52.266;10.522;2022-11-20T08:57:03;5.73;;;5.63;;
1537;SDS011;12022;52.266;10.522;2022-11-20T08:59:30;8.27;;;8.17;;
1537;SDS011;12022;52.266;10.522;2022-11-20T09:02:17;5.93;;;5.83;;
1537;SDS011;12022;52.266;10.522;2022-11-20T09:04:44;6.60;;;6.50;;
1537;SDS011;12022;52.266;10.522;2022-11-20T09:07:11;6.80;;;6.70;;
1537;SDS011;12022;52.266;10.522;2022-11-20T09:09:38;6.90;;;6.80;;
1537;SDS011;12022;52.266;10.522;2022-11-20T09:12:05;10.30;;;10.20;;
1537;SDS011;12022;52.266;10.522;2022-11-20T09:14:32;9.27;;;9.17;;
1537;SDS011;12022;52.266;10.522;2022-11-20T09:16:59;8.17;;;8.07;;
1537;SDS011;12022;52.266;10.522;2022-11-20T09:19:26;8.30;;;8.20;;
1537;SDS011;12022;52.266;10.522;2022-11-20T09:22:02;7.03;;;6.93;;
1537;SDS011;12022;52.266;10.522;2022-11-20T09:24:29;6.03;;;5.93;;
1537;SDS011;12022;52.266;10.522;2022-11-20T09:26:56;7.37;;;7.27;;
1537;SDS011;12022;52.266;10.522;2022-11-20T09:29:23;5.50;;;5.40;;
1537;SDS011;12022;52.266;10.522;2022-11-20T09:31:49;5.53;;;5.43;;
1537;SDS011;12022;52.266;10.522;2022-11-20T09:34:17;6.60;;;6.50;;
1537;SDS011;12022;52.266;10.522;2022-11-20T09:36:43;4.87;;;4.87;;
1537;SDS011;12022;52.266;10.522;2022-11-20T09:39:11;4.50;;;4.50;;
1537;SDS011;12022;52.266;10.522;2022-11-20T09:44:13;6.20;;;6.10;;
1537;SDS011;12022;52.266;10.522;2022-11-20T09:47:01;8.10;;;8.00;;
1537;SDS011;12022;52.266;10.522;2022-11-20T09:49:45;6.53;;;6.43;;
1537;SDS011;12022;52.266;10.522;2022-11-20T09:55:12;5.27;;;5.23;;
1537;SDS011;12022;52.266;10.522;2022-11-20T09:57:42;5.60;;;5.50;;
1537;SDS011;12022;52.266;10.522;2022-11-20T10:00:12;8.30;;;8.20;;
1537;SDS011;12022;52.266;10.522;2022-11-20T10:05:27;6.60;;;6.50;;
1537;SDS011;12022;52.266;10.522;2022-11-20T10:17:15;6.30;;;6.20;;
1537;SDS011;12022;52.266;10.522;2022-11-20T10:26:12;7.50;;;7.40;;
1537;SDS011;12022;52.266;10.522;2022-11-20T10:31:35;6.40;;;6.30;;
1537;SDS011;12022;52.266;10.522;2022-11-20T10:34:48;9.03;;;8.93;;
1537;SDS011;12022;52.266;10.522;2022-11-20T10:37:20;7.40;;;7.30;;
1537;SDS011;12022;52.266;10.522;2022-11-20T10:39:58;7.10;;;7.00;;
1537;SDS011;12022;52.266;10.522;2022-11-20T10:42:35;16.40;;;16.10;;
1537;SDS011;12022;52.266;10.522;2022-11-20T10:48:01;19.80;;;19.40;;
1537;SDS011;12022;52.266;10.522;2022-11-20T10:50:37;16.50;;;16.20;;
1537;SDS011;12022;52.266;10.522;2022-11-20T10:53:31;18.13;;;17.77;;
1537;SDS011;12022;52.266;10.522;2022-11-20T10:56:05;10.93;;;10.73;;
1537;SDS011;12022;52.266;10.522;2022-11-20T11:01:26;12.83;;;12.63;;
1537;SDS011;12022;52.266;10.522;2022-11-20T11:03:54;7.90;;;7.80;;
1537;SDS011;12022;52.266;10.522;2022-11-20T11:06:34;6.03;;;5.93;;
1537;SDS011;12022;52.266;10.522;2022-11-20T11:09:11;11.57;;;11.37;;
1537;SDS011;12022;52.266;10.522;2022-11-20T11:11:42;8.20;;;8.10;;
1537;SDS011;12022;52.266;10.522;2022-11-20T11:14:13;7.87;;;7.77;;
1537;SDS011;12022;52.266;10.522;2022-11-20T11:16:54;9.97;;;9.87;;
1537;SDS011;12022;52.266;10.522;2022-11-20T11:19:23;9.30;;;9.20;;
1537;SDS011;12022;52.266;10.522;2022-11-20T11:21:52;10.13;;;10.03;;
1537;SDS011;12022;52.266;10.522;2022-11-20T11:24:31;8.23;;;8.13;;
1537;SDS011;12022;52.266;10.522;2022-11-20T11:27:14;7.27;;;7.17;;
1537;SDS011;12022;52.266;10.522;2022-11-20T11:29:45;7.60;;;7.50;;
1537;SDS011;12022;52.266;10.522;2022-11-20T11:32:13;6.53;;;6.43;;
1537;SDS011;12022;52.266;10.522;2022-11-20T11:34:58;6.10;;;6.00;;
1537;SDS011;12022;52.266;10.522;2022-11-20T11:37:26;8.00;;;7.90;;
1537;SDS011;12022;52.266;10.522;2022-11-20T11:40:03;5.90;;;5.80;;
1537;SDS011;12022;52.266;10.522;2022-11-20T11:42:52;5.70;;;5.60;;
1537;SDS011;12022;52.266;10.522;2022-11-20T11:45:22;5.90;;;5.80;;
1537;SDS011;12022;52.266;10.522;2022-11-20T11:47:50;8.27;;;8.17;;
1537;SDS011;12022;52.266;10.522;2022-11-20T11:50:24;8.63;;;8.53;;
1537;SDS011;12022;52.266;10.522;2022-11-20T11:55:44;14.70;;;14.40;;
1537;SDS011;12022;52.266;10.522;2022-11-20T11:58:46;7.07;;;6.97;;
1537;SDS011;12022;52.266;10.522;2022-11-20T12:04:17;7.03;;;6.93;;
1537;SDS011;12022;52.266;10.522;2022-11-20T12:06:47;8.57;;;8.47;;
1537;SDS011;12022;52.266;10.522;2022-11-20T12:09:17;11.03;;;10.83;;
1537;SDS011;12022;52.266;10.522;2022-11-20T12:11:52;7.03;;;6.93;;
1537;SDS011;12022;52.266;10.522;2022-11-20T12:17:03;5.50;;;5.40;;
1537;SDS011;12022;52.266;10.522;2022-11-20T12:19:31;7.83;;;7.73;;
1537;SDS011;12022;52.266;10.522;2022-11-20T12:22:05;6.80;;;6.70;;
1537;SDS011;12022;52.266;10.522;2022-11-20T12:24:49;5.23;;;5.20;;
1537;SDS011;12022;52.266;10.522;2022-11-20T12:38:12;5.23;;;5.23;;
1537;SDS011;12022;52.266;10.522;2022-11-20T13:01:48;5.80;;;5.70;;
1537;SDS011;12022;52.266;10.522;2022-11-20T13:06:57;21.27;;;20.87;;
1537;SDS011;12022;52.266;10.522;2022-11-20T13:09:24;22.40;;;21.90;;
1537;SDS011;12022;52.266;10.522;2022-11-20T13:14:34;11.93;;;11.73;;
1537;SDS011;12022;52.266;10.522;2022-11-20T13:20:13;12.97;;;12.77;;
1537;SDS011;12022;52.266;10.522;2022-11-20T13:22:46;3.10;;;3.10;;
1537;SDS011;12022;52.266;10.522;2022-11-20T13:28:01;16.70;;;16.40;;
1537;SDS011;12022;52.266;10.522;2022-11-20T13:30:52;19.83;;;19.43;;
1537;SDS011;12022;52.266;10.522;2022-11-20T13:33:25;20.97;;;20.57;;
1537;SDS011;12022;52.266;10.522;2022-11-20T13:36:01;15.10;;;14.80;;
1537;SDS011;12022;52.266;10.522;2022-11-20T13:38:40;16.00;;;15.70;;
1537;SDS011;12022;52.266;10.522;2022-11-20T13:41:22;27.93;;;27.33;;
1537;SDS011;12022;52.266;10.522;2022-11-20T13:44:05;19.57;;;19.17;;
1537;SDS011;12022;52.266;10.522;2022-11-20T13:46:37;9.63;;;9.50;;
1537;SDS011;12022;52.266;10.522;2022-11-20T13:49:08;27.40;;;26.80;;
1537;SDS011;12022;52.266;10.522;2022-11-20T13:51:50;31.43;;;30.73;;
1537;SDS011;12022;52.266;10.522;2022-11-20T14:00:24;29.50;;;28.80;;
1537;SDS011;12022;52.266;10.522;2022-11-20T14:03:06;18.80;;;18.40;;
1537;SDS011;12022;52.266;10.522;2022-11-20T14:05:39;7.87;;;7.77;;
1537;SDS011;12022;52.266;10.522;2022-11-20T14:08:17;9.03;;;8.93;;
1537;SDS011;12022;52.266;10.522;2022-11-20T14:11:18;8.83;;;8.73;;
1537;SDS011;12022;52.266;10.522;2022-11-20T14:13:52;7.40;;;7.30;;
1537;SDS011;12022;52.266;10.522;2022-11-20T14:16:33;10.27;;;10.10;;
1537;SDS011;12022;52.266;10.522;2022-11-20T14:21:51;8.53;;;8.43;;
1537;SDS011;12022;52.266;10.522;2022-11-20T14:24:21;7.63;;;7.53;;
1537;SDS011;12022;52.266;10.522;2022-11-20T14:26:51;7.80;;;7.70;;
1537;SDS011;12022;52.266;10.522;2022-11-20T14:29:20;6.93;;;6.83;;
1537;SDS011;12022;52.266;10.522;2022-11-20T14:31:56;6.40;;;6.30;;
1537;SDS011;12022;52.266;10.522;2022-11-20T14:34:30;6.37;;;6.27;;
1537;SDS011;12022;52.266;10.522;2022-11-20T14:37:04;8.97;;;8.87;;
1537;SDS011;12022;52.266;10.522;2022-11-20T14:39:42;7.43;;;7.33;;
1537;SDS011;12022;52.266;10.522;2022-11-20T14:42:20;8.27;;;8.17;;
1537;SDS011;12022;52.266;10.522;2022-11-20T14:44:49;8.40;;;8.30;;
1537;SDS011;12022;52.266;10.522;2022-11-20T14:47:19;10.57;;;10.40;;
1537;SDS011;12022;52.266;10.522;2022-11-20T14:49:49;8.90;;;8.80;;
1537;SDS011;12022;52.266;10.522;2022-11-20T14:52:24;7.27;;;7.17;;
1537;SDS011;12022;52.266;10.522;2022-11-20T14:54:54;9.37;;;9.27;;
1537;SDS011;12022;52.266;10.522;2022-11-20T14:57:24;7.00;;;6.90;;
1537;SDS011;12022;52.266;10.522;2022-11-20T15:02:41;8.83;;;8.73;;
1537;SDS011;12022;52.266;10.522;2022-11-20T15:05:11;8.50;;;8.40;;
1537;SDS011;12022;52.266;10.522;2022-11-20T15:07:39;5.77;;;5.67;;
1537;SDS011;12022;52.266;10.522;2022-11-20T15:10:12;6.27;;;6.17;;
1537;SDS011;12022;52.266;10.522;2022-11-20T15:12:48;6.40;;;6.30;;
1537;SDS011;12022;52.266;10.522;2022-11-20T15:15:25;6.43;;;6.33;;
1537;SDS011;12022;52.266;10.522;2022-11-20T15:17:55;6.17;;;6.07;;
1537;SDS011;12022;52.266;10.522;2022-11-20T15:20:24;7.40;;;7.30;;
1537;SDS011;12022;52.266;10.522;2022-11-20T15:22:54;6.77;;;6.67;;
1537;SDS011;12022;52.266;10.522;2022-11-20T15:25:21;7.60;;;7.50;;
1537;SDS011;12022;52.266;10.522;2022-11-20T15:27:52;6.10;;;6.00;;
1537;SDS011;12022;52.266;10.522;2022-11-20T15:30:23;5.60;;;5.50;;
1537;SDS011;12022;52.266;10.522;2022-11-20T15:32:50;9.97;;;9.87;;
1537;SDS011;12022;52.266;10.522;2022-11-20T15:35:17;11.43;;;11.23;;
1537;SDS011;12022;52.266;10.522;2022-11-20T15:37:44;5.90;;;5.80;;
1537;SDS011;12022;52.266;10.522;2022-11-20T15:40:11;9.00;;;8.90;;
1537;SDS011;12022;52.266;10.522;2022-11-20T15:42:38;8.23;;;8.13;;
1537;SDS011;12022;52.266;10.522;2022-11-20T15:45:25;6.90;;;6.80;;
1537;SDS011;12022;52.266;10.522;2022-11-20T15:47:53;8.40;;;8.30;;
1537;SDS011;12022;52.266;10.522;2022-11-20T15:50:20;6.93;;;6.83;;
1537;SDS011;12022;52.266;10.522;2022-11-20T15:52:50;5.70;;;5.60;;
1537;SDS011;12022;52.266;10.522;2022-11-20T15:55:17;8.17;;;8.07;;
1537;SDS011;12022;52.266;10.522;2022-11-20T15:57:44;7.77;;;7.67;;
1537;SDS011;12022;52.266;10.522;2022-11-20T16:00:12;6.97;;;6.87;;
1537;SDS011;12022;52.266;10.522;2022-11-20T16:02:41;8.03;;;7.93;;
1537;SDS011;12022;52.266;10.522;2022-11-20T16:05:11;8.97;;;8.87;;
1537;SDS011;12022;52.266;10.522;2022-11-20T16:07:39;7.57;;;7.47;;
1537;SDS011;12022;52.266;10.522;2022-11-20T16:10:06;8.50;;;8.40;;
1537;SDS011;12022;52.266;10.522;2022-11-20T16:12:33;6.20;;;6.10;;
1537;SDS011;12022;52.266;10.522;2022-11-20T16:15:19;6.80;;;6.70;;
1537;SDS011;12022;52.266;10.522;2022-11-20T16:18:06;6.93;;;6.83;;
1537;SDS011;12022;52.266;10.522;2022-11-20T16:20:36;6.13;;;6.03;;
1537;SDS011;12022;52.266;10.522;2022-11-20T16:23:03;7.10;;;7.00;;
1537;SDS011;12022;52.266;10.522;2022-11-20T16:25:31;6.47;;;6.37;;
1537;SDS011;12022;52.266;10.522;2022-11-20T16:27:58;6.83;;;6.73;;
1537;SDS011;12022;52.266;10.522;2022-11-20T16:30:25;5.40;;;5.30;;
1537;SDS011;12022;52.266;10.522;2022-11-20T16:32:52;8.10;;;8.00;;
1537;SDS011;12022;52.266;10.522;2022-11-20T16:35:19;5.80;;;5.70;;
1537;SDS011;12022;52.266;10.522;2022-11-20T16:37:46;7.87;;;7.77;;
1537;SDS011;12022;52.266;10.522;2022-11-20T16:40:13;5.60;;;5.50;;
1537;SDS011;12022;52.266;10.522;2022-11-20T16:42:40;5.83;;;5.73;;
1537;SDS011;12022;52.266;10.522;2022-11-20T16:45:07;4.93;;;4.93;;
1537;SDS011;12022;52.266;10.522;2022-11-20T16:47:34;4.70;;;4.70;;
1537;SDS011;12022;52.266;10.522;2022-11-20T16:50:02;5.00;;;5.00;;